sensor_id;sensor_type;location;lat;lon;timestamp;temperature;humidity
15749;DHT22;7976;52.526;13.326;2022-12-01T00:02:22;2.20;99.90
15749;DHT22;7976;52.526;13.326;2022-12-01T00:04:48;2.20;99.90
15749;DHT22;7976;52.526;13.326;2022-12-01T00:07:15;2.20;99.90
15749;DHT22;7976;52.526;13.326;2022-12-01T00:09:42;2.20;99.90
15749;DHT22;7976;52.526;13.326;2022-12-01T00:12:26;2.20;99.90
15749;DHT22;7976;52.526;13.326;2022-12-01T00:14:56;2.20;99.90
15749;DHT22;7976;52.526;13.326;2022-12-01T00:17:26;2.30;99.90
15749;DHT22;7976;52.526;13.326;2022-12-01T00:19:54;2.40;99.90
15749;DHT22;7976;52.526;13.326;2022-12-01T00:22:21;2.40;99.90
15749;DHT22;7976;52.526;13.326;2022-12-01T00:24:48;2.40;99.90
15749;DHT22;7976;52.526;13.326;2022-12-01T00:27:15;2.40;99.90
15749;DHT22;7976;52.526;13.326;2022-12-01T00:29:42;2.30;99.90
15749;DHT22;7976;52.526;13.326;2022-12-01T00:32:10;2.30;99.90
15749;DHT22;7976;52.526;13.326;2022-12-01T00:34:37;2.30;99.90
15749;DHT22;7976;52.526;13.326;2022-12-01T00:37:04;2.20;99.90
15749;DHT22;7976;52.526;13.326;2022-12-01T00:39:31;2.20;99.90
15749;DHT22;7976;52.526;13.326;2022-12-01T00:41:58;2.20;99.90
15749;DHT22;7976;52.526;13.326;2022-12-01T00:44:25;2.20;99.90
15749;DHT22;7976;52.526;13.326;2022-12-01T00:46:52;2.20;99.90
15749;DHT22;7976;52.526;13.326;2022-12-01T00:49:21;2.20;99.90
15749;DHT22;7976;52.526;13.326;2022-12-01T00:51:48;2.10;99.90
15749;DHT22;7976;52.526;13.326;2022-12-01T00:54:14;2.10;99.90
15749;DHT22;7976;52.526;13.326;2022-12-01T00:56:41;2.10;99.90
15749;DHT22;7976;52.526;13.326;2022-12-01T00:59:08;2.10;99.90
15749;DHT22;7976;52.526;13.326;2022-12-01T01:01:35;2.10;99.90
15749;DHT22;7976;52.526;13.326;2022-12-01T01:04:02;2.10;99.90
15749;DHT22;7976;52.526;13.326;2022-12-01T01:06:31;2.10;99.90
15749;DHT22;7976;52.526;13.326;2022-12-01T01:08:57;2.20;99.90
15749;DHT22;7976;52.526;13.326;2022-12-01T01:11:24;2.20;99.90
15749;DHT22;7976;52.526;13.326;2022-12-01T01:13:51;2.20;99.90
15749;DHT22;7976;52.526;13.326;2022-12-01T01:16:20;2.20;99.90
15749;DHT22;7976;52.526;13.326;2022-12-01T01:18:48;2.10;99.90
15749;DHT22;7976;52.526;13.326;2022-12-01T01:21:16;2.10;99.90
15749;DHT22;7976;52.526;13.326;2022-12-01T01:23:47;2.00;99.90
15749;DHT22;7976;52.526;13.326;2022-12-01T01:26:16;2.10;99.90
15749;DHT22;7976;52.526;13.326;2022-12-01T01:28:44;2.00;99.90
15749;DHT22;7976;52.526;13.326;2022-12-01T01:31:14;2.00;99.90
15749;DHT22;7976;52.526;13.326;2022-12-01T01:33:43;2.00;99.90
15749;DHT22;7976;52.526;13.326;2022-12-01T01:36:10;2.00;99.90
15749;DHT22;7976;52.526;13.326;2022-12-01T01:38:38;2.10;99.90
15749;DHT22;7976;52.526;13.326;2022-12-01T01:41:07;2.10;99.90
15749;DHT22;7976;52.526;13.326;2022-12-01T01:43:41;2.10;99.90
15749;DHT22;7976;52.526;13.326;2022-12-01T01:46:11;2.10;99.90
15749;DHT22;7976;52.526;13.326;2022-12-01T01:48:42;2.00;99.90
15749;DHT22;7976;52.526;13.326;2022-12-01T01:51:12;2.00;99.90
15749;DHT22;7976;52.526;13.326;2022-12-01T01:53:41;2.10;99.90
15749;DHT22;7976;52.526;13.326;2022-12-01T01:56:12;2.10;99.90
15749;DHT22;7976;52.526;13.326;2022-12-01T01:58:39;2.10;99.90
15749;DHT22;7976;52.526;13.326;2022-12-01T02:01:07;2.10;99.90
15749;DHT22;7976;52.526;13.326;2022-12-01T02:03:34;2.10;99.90
15749;DHT22;7976;52.526;13.326;2022-12-01T02:06:04;2.10;99.90
15749;DHT22;7976;52.526;13.326;2022-12-01T02:08:34;2.10;99.90
15749;DHT22;7976;52.526;13.326;2022-12-01T02:14:33;2.00;99.90
15749;DHT22;7976;52.526;13.326;2022-12-01T02:17:22;2.00;99.90
15749;DHT22;7976;52.526;13.326;2022-12-01T02:26:38;1.80;99.90
15749;DHT22;7976;52.526;13.326;2022-12-01T02:32:30;1.90;99.90
15749;DHT22;7976;52.526;13.326;2022-12-01T02:35:07;1.90;99.90
15749;DHT22;7976;52.526;13.326;2022-12-01T02:37:46;1.90;99.90
15749;DHT22;7976;52.526;13.326;2022-12-01T02:40:19;1.90;99.90
15749;DHT22;7976;52.526;13.326;2022-12-01T02:42:54;1.90;99.90
15749;DHT22;7976;52.526;13.326;2022-12-01T02:45:33;1.90;99.90
15749;DHT22;7976;52.526;13.326;2022-12-01T02:48:10;1.90;99.90
15749;DHT22;7976;52.526;13.326;2022-12-01T02:50:42;1.90;99.90
15749;DHT22;7976;52.526;13.326;2022-12-01T02:53:14;1.90;99.90
15749;DHT22;7976;52.526;13.326;2022-12-01T02:55:48;1.90;99.90
15749;DHT22;7976;52.526;13.326;2022-12-01T02:58:18;1.90;99.90
15749;DHT22;7976;52.526;13.326;2022-12-01T03:00:55;1.90;99.90
15749;DHT22;7976;52.526;13.326;2022-12-01T03:04:00;1.90;99.90
15749;DHT22;7976;52.526;13.326;2022-12-01T03:06:42;1.90;99.90
15749;DHT22;7976;52.526;13.326;2022-12-01T03:09:24;1.90;99.90
15749;DHT22;7976;52.526;13.326;2022-12-01T03:12:09;1.90;99.90
15749;DHT22;7976;52.526;13.326;2022-12-01T03:14:45;1.90;99.90
15749;DHT22;7976;52.526;13.326;2022-12-01T03:17:26;1.90;99.90
15749;DHT22;7976;52.526;13.326;2022-12-01T03:20:04;1.90;99.90
15749;DHT22;7976;52.526;13.326;2022-12-01T03:22:39;2.00;99.90
15749;DHT22;7976;52.526;13.326;2022-12-01T03:25:11;1.90;99.90
15749;DHT22;7976;52.526;13.326;2022-12-01T03:27:42;1.90;99.90
15749;DHT22;7976;52.526;13.326;2022-12-01T03:30:12;1.90;99.90
15749;DHT22;7976;52.526;13.326;2022-12-01T03:32:43;1.90;99.90
15749;DHT22;7976;52.526;13.326;2022-12-01T03:35:19;1.90;99.90
15749;DHT22;7976;52.526;13.326;2022-12-01T03:37:57;2.00;99.90
15749;DHT22;7976;52.526;13.326;2022-12-01T03:40:29;2.00;99.90
15749;DHT22;7976;52.526;13.326;2022-12-01T03:43:03;2.00;99.90
15749;DHT22;7976;52.526;13.326;2022-12-01T03:45:49;1.90;99.90
15749;DHT22;7976;52.526;13.326;2022-12-01T03:48:22;1.90;99.90
15749;DHT22;7976;52.526;13.326;2022-12-01T03:50:57;1.90;99.90
15749;DHT22;7976;52.526;13.326;2022-12-01T03:53:35;1.90;99.90
15749;DHT22;7976;52.526;13.326;2022-12-01T03:56:13;1.90;99.90
15749;DHT22;7976;52.526;13.326;2022-12-01T03:58:44;1.90;99.90
15749;DHT22;7976;52.526;13.326;2022-12-01T04:01:14;1.90;99.90
15749;DHT22;7976;52.526;13.326;2022-12-01T04:03:41;1.90;99.90
15749;DHT22;7976;52.526;13.326;2022-12-01T04:06:12;1.90;99.90
15749;DHT22;7976;52.526;13.326;2022-12-01T04:08:39;1.80;99.90
15749;DHT22;7976;52.526;13.326;2022-12-01T04:11:07;1.80;99.90
15749;DHT22;7976;52.526;13.326;2022-12-01T04:13:48;1.90;99.90
15749;DHT22;7976;52.526;13.326;2022-12-01T04:16:14;1.90;99.90
15749;DHT22;7976;52.526;13.326;2022-12-01T04:18:41;1.90;99.90
15749;DHT22;7976;52.526;13.326;2022-12-01T04:21:08;1.90;99.90
15749;DHT22;7976;52.526;13.326;2022-12-01T04:23:36;1.90;99.90
15749;DHT22;7976;52.526;13.326;2022-12-01T04:26:20;1.90;99.90
15749;DHT22;7976;52.526;13.326;2022-12-01T04:28:47;1.90;99.90
15749;DHT22;7976;52.526;13.326;2022-12-01T04:31:14;1.90;99.90
15749;DHT22;7976;52.526;13.326;2022-12-01T04:33:41;1.90;99.90
15749;DHT22;7976;52.526;13.326;2022-12-01T04:36:09;1.90;99.90
15749;DHT22;7976;52.526;13.326;2022-12-01T04:38:37;1.90;99.90
15749;DHT22;7976;52.526;13.326;2022-12-01T04:41:07;1.90;99.90
15749;DHT22;7976;52.526;13.326;2022-12-01T04:43:35;1.90;99.90
15749;DHT22;7976;52.526;13.326;2022-12-01T04:46:03;1.90;99.90
15749;DHT22;7976;52.526;13.326;2022-12-01T04:48:30;1.80;99.90
15749;DHT22;7976;52.526;13.326;2022-12-01T04:50:57;1.80;99.90
15749;DHT22;7976;52.526;13.326;2022-12-01T04:53:24;1.70;99.90
15749;DHT22;7976;52.526;13.326;2022-12-01T04:55:52;1.60;99.90
15749;DHT22;7976;52.526;13.326;2022-12-01T04:58:19;1.60;99.90
15749;DHT22;7976;52.526;13.326;2022-12-01T05:00:46;1.60;99.90
15749;DHT22;7976;52.526;13.326;2022-12-01T05:03:13;1.60;99.90
15749;DHT22;7976;52.526;13.326;2022-12-01T05:05:40;1.50;99.90
15749;DHT22;7976;52.526;13.326;2022-12-01T05:08:06;1.60;99.90
15749;DHT22;7976;52.526;13.326;2022-12-01T05:10:34;1.50;99.90
15749;DHT22;7976;52.526;13.326;2022-12-01T05:13:02;1.50;99.90
15749;DHT22;7976;52.526;13.326;2022-12-01T05:15:29;1.50;99.90
15749;DHT22;7976;52.526;13.326;2022-12-01T05:17:56;1.60;99.90
15749;DHT22;7976;52.526;13.326;2022-12-01T05:20:24;1.50;99.90
15749;DHT22;7976;52.526;13.326;2022-12-01T05:23:09;1.50;99.90
15749;DHT22;7976;52.526;13.326;2022-12-01T05:25:36;1.50;99.90
15749;DHT22;7976;52.526;13.326;2022-12-01T05:28:04;1.50;99.90
15749;DHT22;7976;52.526;13.326;2022-12-01T05:30:31;1.60;99.90
15749;DHT22;7976;52.526;13.326;2022-12-01T05:32:58;1.60;99.90
15749;DHT22;7976;52.526;13.326;2022-12-01T05:35:25;1.60;99.90
15749;DHT22;7976;52.526;13.326;2022-12-01T05:37:53;1.60;99.90
15749;DHT22;7976;52.526;13.326;2022-12-01T05:40:20;1.60;99.90
15749;DHT22;7976;52.526;13.326;2022-12-01T05:42:47;1.70;99.90
15749;DHT22;7976;52.526;13.326;2022-12-01T05:45:15;1.70;99.90
15749;DHT22;7976;52.526;13.326;2022-12-01T05:47:42;1.70;99.90
15749;DHT22;7976;52.526;13.326;2022-12-01T05:50:09;1.70;99.90
15749;DHT22;7976;52.526;13.326;2022-12-01T05:52:38;1.70;99.90
15749;DHT22;7976;52.526;13.326;2022-12-01T05:55:06;1.60;99.90
15749;DHT22;7976;52.526;13.326;2022-12-01T05:57:33;1.60;99.90
15749;DHT22;7976;52.526;13.326;2022-12-01T05:59:59;1.50;99.90
15749;DHT22;7976;52.526;13.326;2022-12-01T06:02:38;1.60;99.90
15749;DHT22;7976;52.526;13.326;2022-12-01T06:05:06;1.60;99.90
15749;DHT22;7976;52.526;13.326;2022-12-01T06:07:34;1.60;99.90
15749;DHT22;7976;52.526;13.326;2022-12-01T06:10:01;1.60;99.90
15749;DHT22;7976;52.526;13.326;2022-12-01T06:12:28;1.60;99.90
15749;DHT22;7976;52.526;13.326;2022-12-01T06:14:55;1.60;99.90
15749;DHT22;7976;52.526;13.326;2022-12-01T06:17:21;1.60;99.90
15749;DHT22;7976;52.526;13.326;2022-12-01T06:19:50;1.50;99.90
15749;DHT22;7976;52.526;13.326;2022-12-01T06:22:16;1.50;99.90
15749;DHT22;7976;52.526;13.326;2022-12-01T06:24:43;1.50;99.90
15749;DHT22;7976;52.526;13.326;2022-12-01T06:27:10;1.40;99.90
15749;DHT22;7976;52.526;13.326;2022-12-01T06:29:37;1.40;99.90
15749;DHT22;7976;52.526;13.326;2022-12-01T06:32:04;1.50;99.90
15749;DHT22;7976;52.526;13.326;2022-12-01T06:34:31;1.50;99.90
15749;DHT22;7976;52.526;13.326;2022-12-01T06:36:59;1.50;99.90
15749;DHT22;7976;52.526;13.326;2022-12-01T06:39:25;1.50;99.90
15749;DHT22;7976;52.526;13.326;2022-12-01T06:41:52;1.50;99.90
15749;DHT22;7976;52.526;13.326;2022-12-01T06:44:19;1.50;99.90
15749;DHT22;7976;52.526;13.326;2022-12-01T06:46:46;1.50;99.90
15749;DHT22;7976;52.526;13.326;2022-12-01T06:49:17;1.50;99.90
15749;DHT22;7976;52.526;13.326;2022-12-01T06:51:45;1.50;99.90
15749;DHT22;7976;52.526;13.326;2022-12-01T06:54:13;1.50;99.90
15749;DHT22;7976;52.526;13.326;2022-12-01T06:56:42;1.60;99.90
15749;DHT22;7976;52.526;13.326;2022-12-01T06:59:10;1.60;99.90
15749;DHT22;7976;52.526;13.326;2022-12-01T07:01:37;1.60;99.90
15749;DHT22;7976;52.526;13.326;2022-12-01T07:04:04;1.60;99.90
15749;DHT22;7976;52.526;13.326;2022-12-01T07:06:31;1.60;99.90
15749;DHT22;7976;52.526;13.326;2022-12-01T07:08:58;1.60;99.90
15749;DHT22;7976;52.526;13.326;2022-12-01T07:11:26;1.60;99.90
15749;DHT22;7976;52.526;13.326;2022-12-01T07:13:54;1.60;99.90
15749;DHT22;7976;52.526;13.326;2022-12-01T07:16:22;1.70;99.90
15749;DHT22;7976;52.526;13.326;2022-12-01T07:18:49;1.70;99.90
15749;DHT22;7976;52.526;13.326;2022-12-01T07:21:17;1.70;99.90
15749;DHT22;7976;52.526;13.326;2022-12-01T07:23:43;1.60;99.90
15749;DHT22;7976;52.526;13.326;2022-12-01T07:26:12;1.60;99.90
15749;DHT22;7976;52.526;13.326;2022-12-01T07:28:42;1.60;99.90
15749;DHT22;7976;52.526;13.326;2022-12-01T07:31:12;1.50;99.90
15749;DHT22;7976;52.526;13.326;2022-12-01T07:33:40;1.50;99.90
15749;DHT22;7976;52.526;13.326;2022-12-01T07:36:08;1.50;99.90
15749;DHT22;7976;52.526;13.326;2022-12-01T07:38:36;1.50;99.90
15749;DHT22;7976;52.526;13.326;2022-12-01T07:41:05;1.50;99.90
15749;DHT22;7976;52.526;13.326;2022-12-01T07:43:33;1.60;99.90
15749;DHT22;7976;52.526;13.326;2022-12-01T07:46:07;1.60;99.90
15749;DHT22;7976;52.526;13.326;2022-12-01T07:48:37;1.60;99.90
15749;DHT22;7976;52.526;13.326;2022-12-01T07:51:05;1.70;99.90
15749;DHT22;7976;52.526;13.326;2022-12-01T07:53:34;1.70;99.90
15749;DHT22;7976;52.526;13.326;2022-12-01T07:56:02;1.70;99.90
15749;DHT22;7976;52.526;13.326;2022-12-01T07:58:30;1.70;99.90
15749;DHT22;7976;52.526;13.326;2022-12-01T08:00:58;1.70;99.90
15749;DHT22;7976;52.526;13.326;2022-12-01T08:03:31;1.80;99.90
15749;DHT22;7976;52.526;13.326;2022-12-01T08:05:59;1.80;99.90
15749;DHT22;7976;52.526;13.326;2022-12-01T08:08:28;1.80;99.90
15749;DHT22;7976;52.526;13.326;2022-12-01T08:10:59;1.80;99.90
15749;DHT22;7976;52.526;13.326;2022-12-01T08:13:27;1.80;99.90
15749;DHT22;7976;52.526;13.326;2022-12-01T08:15:55;1.80;99.90
15749;DHT22;7976;52.526;13.326;2022-12-01T08:18:21;1.80;99.90
15749;DHT22;7976;52.526;13.326;2022-12-01T08:20:50;1.80;99.90
15749;DHT22;7976;52.526;13.326;2022-12-01T08:23:17;1.80;99.90
15749;DHT22;7976;52.526;13.326;2022-12-01T08:25:44;1.80;99.90
15749;DHT22;7976;52.526;13.326;2022-12-01T08:28:10;1.90;99.90
15749;DHT22;7976;52.526;13.326;2022-12-01T08:30:37;1.90;99.90
15749;DHT22;7976;52.526;13.326;2022-12-01T08:33:04;1.90;99.90
15749;DHT22;7976;52.526;13.326;2022-12-01T08:35:30;1.90;99.90
15749;DHT22;7976;52.526;13.326;2022-12-01T08:38:02;1.90;99.90
15749;DHT22;7976;52.526;13.326;2022-12-01T08:40:29;1.90;99.90
15749;DHT22;7976;52.526;13.326;2022-12-01T08:42:56;1.90;99.90
15749;DHT22;7976;52.526;13.326;2022-12-01T08:45:23;1.80;99.90
15749;DHT22;7976;52.526;13.326;2022-12-01T08:47:52;1.80;99.90
15749;DHT22;7976;52.526;13.326;2022-12-01T08:50:19;1.80;99.90
15749;DHT22;7976;52.526;13.326;2022-12-01T08:52:45;1.70;99.90
15749;DHT22;7976;52.526;13.326;2022-12-01T08:55:13;1.70;99.90
15749;DHT22;7976;52.526;13.326;2022-12-01T08:57:40;1.80;99.90
15749;DHT22;7976;52.526;13.326;2022-12-01T09:00:08;1.80;99.90
15749;DHT22;7976;52.526;13.326;2022-12-01T09:02:35;1.80;99.90
15749;DHT22;7976;52.526;13.326;2022-12-01T09:05:02;1.90;99.90
15749;DHT22;7976;52.526;13.326;2022-12-01T09:07:29;1.90;99.90
15749;DHT22;7976;52.526;13.326;2022-12-01T09:09:56;1.90;99.90
15749;DHT22;7976;52.526;13.326;2022-12-01T09:12:24;1.90;99.90
15749;DHT22;7976;52.526;13.326;2022-12-01T09:14:51;1.90;99.90
15749;DHT22;7976;52.526;13.326;2022-12-01T09:17:18;1.90;99.90
15749;DHT22;7976;52.526;13.326;2022-12-01T09:19:45;1.90;99.90
15749;DHT22;7976;52.526;13.326;2022-12-01T09:22:11;1.90;99.90
15749;DHT22;7976;52.526;13.326;2022-12-01T09:24:38;1.90;99.90
15749;DHT22;7976;52.526;13.326;2022-12-01T09:27:05;1.90;99.90
15749;DHT22;7976;52.526;13.326;2022-12-01T09:29:33;1.90;99.90
15749;DHT22;7976;52.526;13.326;2022-12-01T09:32:00;1.90;99.90
15749;DHT22;7976;52.526;13.326;2022-12-01T09:34:27;1.90;99.90
15749;DHT22;7976;52.526;13.326;2022-12-01T09:36:55;2.00;99.90
15749;DHT22;7976;52.526;13.326;2022-12-01T09:39:23;2.00;99.90
15749;DHT22;7976;52.526;13.326;2022-12-01T09:41:54;2.00;99.90
15749;DHT22;7976;52.526;13.326;2022-12-01T09:44:34;2.10;99.90
15749;DHT22;7976;52.526;13.326;2022-12-01T09:47:11;2.10;99.90
15749;DHT22;7976;52.526;13.326;2022-12-01T09:49:54;2.10;99.90
15749;DHT22;7976;52.526;13.326;2022-12-01T09:52:26;2.00;99.90
15749;DHT22;7976;52.526;13.326;2022-12-01T09:54:57;2.00;99.90
15749;DHT22;7976;52.526;13.326;2022-12-01T09:57:29;2.10;99.90
15749;DHT22;7976;52.526;13.326;2022-12-01T10:00:03;2.10;99.90
15749;DHT22;7976;52.526;13.326;2022-12-01T10:02:40;2.10;99.90
15749;DHT22;7976;52.526;13.326;2022-12-01T10:05:15;2.10;99.90
15749;DHT22;7976;52.526;13.326;2022-12-01T10:07:47;2.10;99.90
15749;DHT22;7976;52.526;13.326;2022-12-01T10:10:26;2.10;99.90
15749;DHT22;7976;52.526;13.326;2022-12-01T10:12:55;2.00;99.90
15749;DHT22;7976;52.526;13.326;2022-12-01T10:15:31;2.10;99.90
15749;DHT22;7976;52.526;13.326;2022-12-01T10:18:17;2.10;99.90
15749;DHT22;7976;52.526;13.326;2022-12-01T10:21:01;2.10;99.90
15749;DHT22;7976;52.526;13.326;2022-12-01T10:23:53;2.10;99.90
15749;DHT22;7976;52.526;13.326;2022-12-01T10:26:34;2.10;99.90
15749;DHT22;7976;52.526;13.326;2022-12-01T10:29:15;2.00;99.90
15749;DHT22;7976;52.526;13.326;2022-12-01T10:31:54;2.00;99.90
15749;DHT22;7976;52.526;13.326;2022-12-01T10:34:24;2.00;99.90
15749;DHT22;7976;52.526;13.326;2022-12-01T10:36:54;2.10;99.90
15749;DHT22;7976;52.526;13.326;2022-12-01T10:39:26;2.10;99.90
15749;DHT22;7976;52.526;13.326;2022-12-01T10:42:00;2.20;99.90
15749;DHT22;7976;52.526;13.326;2022-12-01T10:44:29;2.20;99.90
15749;DHT22;7976;52.526;13.326;2022-12-01T10:46:58;2.20;99.90
15749;DHT22;7976;52.526;13.326;2022-12-01T10:49:36;2.20;99.90
15749;DHT22;7976;52.526;13.326;2022-12-01T10:52:05;2.30;99.90
15749;DHT22;7976;52.526;13.326;2022-12-01T10:54:35;2.30;99.90
15749;DHT22;7976;52.526;13.326;2022-12-01T10:57:05;2.30;99.90
15749;DHT22;7976;52.526;13.326;2022-12-01T10:59:48;2.40;99.90
15749;DHT22;7976;52.526;13.326;2022-12-01T11:02:22;2.30;99.90
15749;DHT22;7976;52.526;13.326;2022-12-01T11:04:54;2.30;99.90
15749;DHT22;7976;52.526;13.326;2022-12-01T11:07:26;2.30;99.90
15749;DHT22;7976;52.526;13.326;2022-12-01T11:10:13;2.30;99.90
15749;DHT22;7976;52.526;13.326;2022-12-01T11:12:45;2.30;99.90
15749;DHT22;7976;52.526;13.326;2022-12-01T11:15:24;2.30;99.90
15749;DHT22;7976;52.526;13.326;2022-12-01T11:17:58;2.30;99.90
15749;DHT22;7976;52.526;13.326;2022-12-01T11:20:32;2.30;99.90
15749;DHT22;7976;52.526;13.326;2022-12-01T11:23:22;2.30;99.90
15749;DHT22;7976;52.526;13.326;2022-12-01T11:25:57;2.30;99.90
15749;DHT22;7976;52.526;13.326;2022-12-01T11:28:27;2.30;99.90
15749;DHT22;7976;52.526;13.326;2022-12-01T11:30:55;2.30;99.90
15749;DHT22;7976;52.526;13.326;2022-12-01T11:33:25;2.30;99.90
15749;DHT22;7976;52.526;13.326;2022-12-01T11:35:55;2.40;99.90
15749;DHT22;7976;52.526;13.326;2022-12-01T11:38:23;2.50;99.90
15749;DHT22;7976;52.526;13.326;2022-12-01T11:40:57;2.50;99.90
15749;DHT22;7976;52.526;13.326;2022-12-01T11:43:27;2.60;99.90
15749;DHT22;7976;52.526;13.326;2022-12-01T11:45:59;2.60;99.90
15749;DHT22;7976;52.526;13.326;2022-12-01T11:48:32;2.60;99.90
15749;DHT22;7976;52.526;13.326;2022-12-01T11:51:04;2.50;99.90
15749;DHT22;7976;52.526;13.326;2022-12-01T11:53:34;2.50;99.90
15749;DHT22;7976;52.526;13.326;2022-12-01T11:56:14;2.60;99.90
15749;DHT22;7976;52.526;13.326;2022-12-01T11:58:45;2.60;99.90
15749;DHT22;7976;52.526;13.326;2022-12-01T12:01:23;2.60;99.90
15749;DHT22;7976;52.526;13.326;2022-12-01T12:04:15;2.60;99.90
15749;DHT22;7976;52.526;13.326;2022-12-01T12:06:58;2.50;99.90
15749;DHT22;7976;52.526;13.326;2022-12-01T12:09:45;2.50;99.90
15749;DHT22;7976;52.526;13.326;2022-12-01T12:12:35;2.50;99.90
15749;DHT22;7976;52.526;13.326;2022-12-01T12:15:22;2.60;99.90
15749;DHT22;7976;52.526;13.326;2022-12-01T12:18:19;2.50;99.90
15749;DHT22;7976;52.526;13.326;2022-12-01T12:21:06;2.50;99.90
15749;DHT22;7976;52.526;13.326;2022-12-01T12:23:52;2.50;99.90
15749;DHT22;7976;52.526;13.326;2022-12-01T12:26:34;2.50;99.90
15749;DHT22;7976;52.526;13.326;2022-12-01T12:29:18;2.50;99.90
15749;DHT22;7976;52.526;13.326;2022-12-01T12:32:06;2.40;99.90
15749;DHT22;7976;52.526;13.326;2022-12-01T12:34:51;2.50;99.90
15749;DHT22;7976;52.526;13.326;2022-12-01T12:37:35;2.50;99.90
15749;DHT22;7976;52.526;13.326;2022-12-01T12:40:30;2.50;99.90
15749;DHT22;7976;52.526;13.326;2022-12-01T12:43:18;2.50;99.90
15749;DHT22;7976;52.526;13.326;2022-12-01T12:46:01;2.50;99.90
15749;DHT22;7976;52.526;13.326;2022-12-01T12:48:45;2.50;99.90
15749;DHT22;7976;52.526;13.326;2022-12-01T12:51:29;2.50;99.90
15749;DHT22;7976;52.526;13.326;2022-12-01T12:54:11;2.50;99.90
15749;DHT22;7976;52.526;13.326;2022-12-01T12:56:46;2.40;99.90
15749;DHT22;7976;52.526;13.326;2022-12-01T12:59:18;2.40;99.90
15749;DHT22;7976;52.526;13.326;2022-12-01T13:01:56;2.40;99.90
15749;DHT22;7976;52.526;13.326;2022-12-01T13:04:38;2.40;99.90
15749;DHT22;7976;52.526;13.326;2022-12-01T13:07:19;2.40;99.90
15749;DHT22;7976;52.526;13.326;2022-12-01T13:09:59;2.40;99.90
15749;DHT22;7976;52.526;13.326;2022-12-01T13:12:36;2.50;99.90
15749;DHT22;7976;52.526;13.326;2022-12-01T13:15:14;2.40;99.90
15749;DHT22;7976;52.526;13.326;2022-12-01T13:17:45;2.40;99.90
15749;DHT22;7976;52.526;13.326;2022-12-01T13:20:19;2.40;99.90
15749;DHT22;7976;52.526;13.326;2022-12-01T13:22:52;2.40;99.90
15749;DHT22;7976;52.526;13.326;2022-12-01T13:25:25;2.40;99.90
15749;DHT22;7976;52.526;13.326;2022-12-01T13:27:56;2.40;99.90
15749;DHT22;7976;52.526;13.326;2022-12-01T13:30:26;2.40;99.90
15749;DHT22;7976;52.526;13.326;2022-12-01T13:32:58;2.40;99.90
15749;DHT22;7976;52.526;13.326;2022-12-01T13:35:29;2.30;99.90
15749;DHT22;7976;52.526;13.326;2022-12-01T13:38:21;2.30;99.90
15749;DHT22;7976;52.526;13.326;2022-12-01T13:41:23;2.20;99.90
15749;DHT22;7976;52.526;13.326;2022-12-01T13:44:03;2.30;99.90
15749;DHT22;7976;52.526;13.326;2022-12-01T13:46:49;2.30;99.90
15749;DHT22;7976;52.526;13.326;2022-12-01T13:49:38;2.30;99.90
15749;DHT22;7976;52.526;13.326;2022-12-01T13:52:26;2.30;99.90
15749;DHT22;7976;52.526;13.326;2022-12-01T13:55:02;2.30;99.90
15749;DHT22;7976;52.526;13.326;2022-12-01T13:58:23;2.30;99.90
15749;DHT22;7976;52.526;13.326;2022-12-01T14:00:52;2.40;99.90
15749;DHT22;7976;52.526;13.326;2022-12-01T14:03:51;2.40;99.90
15749;DHT22;7976;52.526;13.326;2022-12-01T14:06:25;2.40;99.90
15749;DHT22;7976;52.526;13.326;2022-12-01T14:09:04;2.40;99.90
15749;DHT22;7976;52.526;13.326;2022-12-01T14:11:39;2.40;99.90
15749;DHT22;7976;52.526;13.326;2022-12-01T14:14:11;2.50;99.90
15749;DHT22;7976;52.526;13.326;2022-12-01T14:16:46;2.50;99.90
15749;DHT22;7976;52.526;13.326;2022-12-01T14:19:29;2.50;99.90
15749;DHT22;7976;52.526;13.326;2022-12-01T14:22:03;2.50;99.90
15749;DHT22;7976;52.526;13.326;2022-12-01T14:24:34;2.50;99.90
15749;DHT22;7976;52.526;13.326;2022-12-01T14:27:04;2.50;99.90
15749;DHT22;7976;52.526;13.326;2022-12-01T14:29:33;2.50;99.90
15749;DHT22;7976;52.526;13.326;2022-12-01T14:32:23;2.50;99.90
15749;DHT22;7976;52.526;13.326;2022-12-01T14:35:12;2.50;99.90
15749;DHT22;7976;52.526;13.326;2022-12-01T14:37:46;2.50;99.90
15749;DHT22;7976;52.526;13.326;2022-12-01T14:40:19;2.50;99.90
15749;DHT22;7976;52.526;13.326;2022-12-01T14:42:54;2.40;99.90
15749;DHT22;7976;52.526;13.326;2022-12-01T14:45:47;2.40;99.90
15749;DHT22;7976;52.526;13.326;2022-12-01T14:48:24;2.50;99.90
15749;DHT22;7976;52.526;13.326;2022-12-01T14:51:09;2.50;99.90
15749;DHT22;7976;52.526;13.326;2022-12-01T14:53:42;2.50;99.90
15749;DHT22;7976;52.526;13.326;2022-12-01T14:56:15;2.50;99.90
15749;DHT22;7976;52.526;13.326;2022-12-01T14:58:52;2.60;99.90
15749;DHT22;7976;52.526;13.326;2022-12-01T15:01:21;2.50;99.90
15749;DHT22;7976;52.526;13.326;2022-12-01T15:03:57;2.50;99.90
15749;DHT22;7976;52.526;13.326;2022-12-01T15:06:33;2.50;99.90
15749;DHT22;7976;52.526;13.326;2022-12-01T15:09:09;2.50;99.90
15749;DHT22;7976;52.526;13.326;2022-12-01T15:11:49;2.50;99.90
15749;DHT22;7976;52.526;13.326;2022-12-01T15:14:23;2.50;99.90
15749;DHT22;7976;52.526;13.326;2022-12-01T15:17:04;2.50;99.90
15749;DHT22;7976;52.526;13.326;2022-12-01T15:19:35;2.50;99.90
15749;DHT22;7976;52.526;13.326;2022-12-01T15:22:12;2.50;99.90
15749;DHT22;7976;52.526;13.326;2022-12-01T15:24:41;2.60;99.90
15749;DHT22;7976;52.526;13.326;2022-12-01T15:27:23;2.50;99.90
15749;DHT22;7976;52.526;13.326;2022-12-01T15:29:56;2.50;99.90
15749;DHT22;7976;52.526;13.326;2022-12-01T15:32:32;2.50;99.90
15749;DHT22;7976;52.526;13.326;2022-12-01T15:35:02;2.50;99.90
15749;DHT22;7976;52.526;13.326;2022-12-01T15:37:42;2.50;99.90
15749;DHT22;7976;52.526;13.326;2022-12-01T15:40:13;2.50;99.90
15749;DHT22;7976;52.526;13.326;2022-12-01T15:42:43;2.50;99.90
15749;DHT22;7976;52.526;13.326;2022-12-01T15:45:17;2.50;99.90
15749;DHT22;7976;52.526;13.326;2022-12-01T15:47:50;2.50;99.90
15749;DHT22;7976;52.526;13.326;2022-12-01T15:50:29;2.50;99.90
15749;DHT22;7976;52.526;13.326;2022-12-01T15:53:04;2.50;99.90
15749;DHT22;7976;52.526;13.326;2022-12-01T15:55:34;2.40;99.90
15749;DHT22;7976;52.526;13.326;2022-12-01T15:58:06;2.40;99.90
15749;DHT22;7976;52.526;13.326;2022-12-01T16:00:52;2.40;99.90
15749;DHT22;7976;52.526;13.326;2022-12-01T16:03:25;2.50;99.90
15749;DHT22;7976;52.526;13.326;2022-12-01T16:05:53;2.40;99.90
15749;DHT22;7976;52.526;13.326;2022-12-01T16:08:24;2.40;99.90
15749;DHT22;7976;52.526;13.326;2022-12-01T16:11:17;2.30;99.90
15749;DHT22;7976;52.526;13.326;2022-12-01T16:13:47;2.30;99.90
15749;DHT22;7976;52.526;13.326;2022-12-01T16:16:33;2.30;99.90
15749;DHT22;7976;52.526;13.326;2022-12-01T16:19:25;2.20;99.90
15749;DHT22;7976;52.526;13.326;2022-12-01T16:22:00;2.20;99.90
15749;DHT22;7976;52.526;13.326;2022-12-01T16:24:33;2.20;99.90
15749;DHT22;7976;52.526;13.326;2022-12-01T16:27:06;2.20;99.90
15749;DHT22;7976;52.526;13.326;2022-12-01T16:29:47;2.20;99.90
15749;DHT22;7976;52.526;13.326;2022-12-01T16:32:18;2.20;99.90
15749;DHT22;7976;52.526;13.326;2022-12-01T16:34:49;2.20;99.90